Time;durP1;ratioP1;P1;durP2;ratioP2;P2;SDS_P1;SDS_P2;PMS_P1;PMS_P2;Temp;Humidity;BMP_temperature;BMP_pressure;BME280_temperature;BME280_humidity;BME280_pressure;Samples;Min_cycle;Max_cycle;Signal;HPM_P1;HPM_P2
2022/11/01 00:00:19;;;;;;;51.85;32.72;;;14.20;99.90;;;;;;5009713;28;20535;-69
2022/11/01 00:02:45;;;;;;;52.72;31.30;;;14.20;99.90;;;;;;5010485;28;20057;-71
2022/11/01 00:05:13;;;;;;;59.42;32.88;;;14.20;99.90;;;;;;5009419;28;20050;-71
2022/11/01 00:07:39;;;;;;;52.83;34.92;;;14.10;99.90;;;;;;4977600;28;20045;-71
2022/11/01 00:10:05;;;;;;;56.25;33.53;;;14.00;99.90;;;;;;4991384;28;20208;-71
2022/11/01 00:12:31;;;;;;;59.47;33.30;;;14.10;99.90;;;;;;5009600;28;20205;-71
2022/11/01 00:14:56;;;;;;;58.63;35.10;;;14.20;99.90;;;;;;4990498;28;20054;-70
2022/11/01 00:17:23;;;;;;;53.00;32.10;;;14.20;99.90;;;;;;5024629;28;20055;-71
2022/11/01 00:19:48;;;;;;;55.45;32.92;;;14.20;99.90;;;;;;4994179;28;20143;-71
2022/11/01 00:22:14;;;;;;;53.67;33.22;;;14.20;99.90;;;;;;5008179;28;20455;-70
2022/11/01 00:24:40;;;;;;;52.83;32.13;;;14.20;99.90;;;;;;5010409;28;20554;-70
2022/11/01 00:27:05;;;;;;;54.97;33.28;;;14.20;99.90;;;;;;5009276;28;20108;-71
2022/11/01 00:29:31;;;;;;;55.25;32.03;;;14.20;99.90;;;;;;5009570;28;20476;-70
2022/11/01 00:31:57;;;;;;;54.30;33.15;;;14.20;99.90;;;;;;5009375;28;20073;-71
2022/11/01 00:34:22;;;;;;;53.78;33.28;;;14.20;99.90;;;;;;5009405;28;20157;-71
2022/11/01 00:36:48;;;;;;;56.35;35.00;;;14.20;99.90;;;;;;5005772;28;20062;-71
2022/11/01 00:39:14;;;;;;;53.30;33.08;;;14.10;99.90;;;;;;5009109;28;20046;-71
2022/11/01 00:41:40;;;;;;;54.83;33.03;;;14.10;99.90;;;;;;4990891;28;20559;-71
2022/11/01 00:44:05;;;;;;;57.33;34.63;;;14.10;99.90;;;;;;4988284;28;20597;-71
2022/11/01 00:46:31;;;;;;;62.97;36.25;;;14.10;99.90;;;;;;4993053;28;20054;-70
2022/11/01 00:48:58;;;;;;;58.88;33.88;;;14.00;99.90;;;;;;5009668;28;20353;-71
2022/11/01 00:51:24;;;;;;;53.35;32.88;;;14.00;99.90;;;;;;4991828;28;20541;-71
2022/11/01 00:53:49;;;;;;;54.67;31.67;;;14.00;99.90;;;;;;5006581;28;20064;-71
2022/11/01 00:56:15;;;;;;;50.65;31.55;;;13.90;99.90;;;;;;5021999;28;20042;-71
2022/11/01 00:58:41;;;;;;;55.95;32.28;;;13.90;99.90;;;;;;5029331;28;20050;-71
2022/11/01 01:01:07;;;;;;;52.15;31.75;;;13.80;99.90;;;;;;5035113;28;20140;-71
2022/11/01 01:03:32;;;;;;;52.05;32.17;;;13.80;99.90;;;;;;5004137;28;20043;-72
2022/11/01 01:05:58;;;;;;;52.70;32.45;;;13.70;99.90;;;;;;5024250;28;20426;-70
2022/11/01 01:08:24;;;;;;;58.72;34.58;;;13.80;99.90;;;;;;5007922;28;20111;-71
2022/11/01 01:10:51;;;;;;;53.78;31.67;;;13.70;99.90;;;;;;4991983;28;20069;-71
2022/11/01 01:13:16;;;;;;;54.65;32.95;;;13.70;99.90;;;;;;4992386;28;20049;-71
2022/11/01 01:15:42;;;;;;;54.47;35.65;;;13.70;99.90;;;;;;5008818;28;20476;-71
2022/11/01 01:18:08;;;;;;;56.42;34.83;;;13.70;99.90;;;;;;4990597;28;20061;-71
2022/11/01 01:20:34;;;;;;;58.80;36.53;;;13.70;99.90;;;;;;5004823;28;20038;-70
2022/11/01 01:22:59;;;;;;;60.47;36.05;;;13.60;99.90;;;;;;5022599;28;20053;-71
2022/11/01 01:25:25;;;;;;;58.00;35.03;;;13.60;99.90;;;;;;5008796;28;20053;-71
2022/11/01 01:27:51;;;;;;;55.80;33.83;;;13.60;99.90;;;;;;5002234;28;20054;-71
2022/11/01 01:30:16;;;;;;;57.05;34.70;;;13.60;99.90;;;;;;4991989;28;20045;-72
2022/11/01 01:32:42;;;;;;;54.42;32.95;;;13.70;99.90;;;;;;5021180;28;20057;-70
2022/11/01 01:35:08;;;;;;;50.80;32.95;;;13.70;99.90;;;;;;5008976;28;20462;-71
2022/11/01 01:37:34;;;;;;;50.60;32.10;;;13.70;99.90;;;;;;4992426;28;20111;-71
2022/11/01 01:39:59;;;;;;;54.63;34.70;;;13.70;99.90;;;;;;5008743;28;20084;-71
2022/11/01 01:42:29;;;;;;;65.40;39.95;;;13.70;99.90;;;;;;4986462;28;20046;-71
2022/11/01 01:44:55;;;;;;;56.20;35.55;;;13.60;99.90;;;;;;5008746;28;20074;-71
2022/11/01 01:47:29;;;;;;;59.78;36.45;;;13.60;99.90;;;;;;5024722;28;20092;-71
2022/11/01 01:50:02;;;;;;;55.75;33.42;;;13.60;99.90;;;;;;5007146;28;20144;-71
2022/11/01 01:52:29;;;;;;;54.22;34.58;;;13.70;99.90;;;;;;4991168;28;20475;-71
2022/11/01 01:54:55;;;;;;;49.25;33.30;;;13.70;99.90;;;;;;4992107;28;20053;-71
2022/11/01 01:57:21;;;;;;;48.10;31.42;;;13.70;99.90;;;;;;5007980;28;20067;-71
2022/11/01 01:59:46;;;;;;;54.35;34.25;;;13.70;99.90;;;;;;4989654;28;20051;-71
2022/11/01 02:02:12;;;;;;;52.15;34.63;;;13.60;99.90;;;;;;5008254;28;20058;-71
2022/11/01 02:04:41;;;;;;;56.67;35.30;;;13.60;99.90;;;;;;5007714;28;20476;-71
2022/11/01 02:07:06;;;;;;;;;;;13.60;99.90;;;;;;4989748;28;20637;-71
2022/11/01 02:09:32;;;;;;;60.72;35.75;;;13.60;99.90;;;;;;5008062;28;19917;-70
2022/11/01 02:11:58;;;;;;;52.30;32.90;;;13.60;99.90;;;;;;5007946;28;20128;-71
2022/11/01 02:14:24;;;;;;;47.97;32.20;;;13.50;99.90;;;;;;5008114;28;20054;-71
2022/11/01 02:17:09;;;;;;;49.13;32.63;;;13.60;99.90;;;;;;5005588;28;20617;-71
2022/11/01 02:20:12;;;;;;;48.30;31.45;;;13.50;99.90;;;;;;4989074;28;20463;-71
2022/11/01 02:23:11;;;;;;;51.03;34.03;;;13.50;99.90;;;;;;4991881;28;20046;-71
2022/11/01 02:25:50;;;;;;;51.35;33.35;;;13.50;99.90;;;;;;5006716;28;20100;-71
2022/11/01 02:28:30;;;;;;;48.20;31.20;;;13.50;99.90;;;;;;5008131;28;20070;-71
2022/11/01 02:31:02;;;;;;;51.88;33.08;;;13.50;99.90;;;;;;5006944;28;20061;-71
2022/11/01 02:33:35;;;;;;;43.90;30.50;;;13.50;99.90;;;;;;4991531;28;20054;-71
2022/11/01 02:36:05;;;;;;;50.70;32.17;;;13.40;99.90;;;;;;5004051;28;20700;-71
2022/11/01 02:38:41;;;;;;;46.13;29.77;;;13.40;99.90;;;;;;5005901;28;20046;-73
2022/11/01 02:41:11;;;;;;;47.88;31.33;;;13.40;99.90;;;;;;5008306;28;20046;-72
2022/11/01 02:43:55;;;;;;;50.17;32.70;;;13.40;99.90;;;;;;5007588;28;20149;-72
2022/11/01 02:49:05;;;;;;;44.90;31.25;;;13.40;99.90;;;;;;4999574;28;20038;-70
2022/11/01 02:51:31;;;;;;;48.55;31.00;;;13.40;99.90;;;;;;4990377;28;20503;-71
2022/11/01 02:54:06;;;;;;;51.28;31.40;;;13.30;99.90;;;;;;4989563;28;20065;-71
2022/11/01 02:56:32;;;;;;;43.50;28.92;;;13.30;99.90;;;;;;5006926;28;20057;-72
2022/11/01 02:58:58;;;;;;;42.88;30.42;;;13.30;99.90;;;;;;5006028;28;20464;-71
2022/11/01 03:01:26;;;;;;;47.67;30.70;;;13.20;99.90;;;;;;5004224;28;20042;-71
2022/11/01 03:03:52;;;;;;;44.78;31.23;;;13.20;99.90;;;;;;5010915;28;20041;-71
2022/11/01 03:06:33;;;;;;;43.35;28.50;;;13.20;99.90;;;;;;5010222;28;20680;-72
2022/11/01 03:09:00;;;;;;;43.75;29.38;;;13.20;99.90;;;;;;5025425;28;20772;-70
2022/11/01 03:11:38;;;;;;;39.47;27.65;;;13.20;99.90;;;;;;5013250;28;20046;-71
2022/11/01 03:14:17;;;;;;;44.58;29.73;;;13.20;99.90;;;;;;4999903;28;20038;-71
2022/11/01 03:16:46;;;;;;;;;;;13.20;99.90;;;;;;5008470;28;20065;-71
2022/11/01 03:19:21;;;;;;;45.97;30.35;;;13.20;99.90;;;;;;5026921;28;19979;-71
2022/11/01 03:22:09;;;;;;;39.63;28.92;;;13.20;99.90;;;;;;4994648;28;20530;-72
2022/11/01 03:24:37;;;;;;;37.97;28.00;;;13.10;99.90;;;;;;4993362;28;20077;-72
2022/11/01 03:27:22;;;;;;;42.30;28.00;;;13.10;99.90;;;;;;4994612;28;20172;-70
2022/11/01 03:29:55;;;;;;;45.20;28.55;;;13.10;99.90;;;;;;4993324;28;20145;-70
2022/11/01 03:32:22;;;;;;;40.65;29.83;;;13.10;99.90;;;;;;5012364;28;20038;-70
2022/11/01 03:34:48;;;;;;;40.08;27.92;;;13.10;99.90;;;;;;5004663;28;20066;-70
2022/11/01 03:37:14;;;;;;;40.33;28.23;;;13.10;99.90;;;;;;5043298;28;20178;-72
2022/11/01 03:39:45;;;;;;;41.70;29.88;;;13.10;99.90;;;;;;5010694;28;20065;-71
2022/11/01 03:42:19;;;;;;;41.70;29.95;;;13.10;99.90;;;;;;4994511;28;20450;-72
2022/11/01 03:44:54;;;;;;;41.35;29.60;;;13.10;99.90;;;;;;5009124;28;20041;-71
2022/11/01 03:47:19;;;;;;;46.10;32.20;;;13.10;99.90;;;;;;5010791;28;20046;-71
2022/11/01 03:49:45;;;;;;;39.60;26.95;;;13.10;99.90;;;;;;5004011;28;20494;-70
2022/11/01 03:52:11;;;;;;;44.20;29.40;;;13.10;99.90;;;;;;5010662;28;20069;-71
2022/11/01 03:54:37;;;;;;;44.95;30.08;;;13.10;99.90;;;;;;4991567;28;20054;-71
2022/11/01 03:57:02;;;;;;;45.92;30.55;;;13.10;99.90;;;;;;4994396;28;20092;-71
2022/11/01 03:59:28;;;;;;;45.80;32.15;;;13.00;99.90;;;;;;5009239;28;20095;-71
2022/11/01 04:01:54;;;;;;;46.88;31.08;;;13.00;99.90;;;;;;5010342;28;20049;-71
2022/11/01 04:04:20;;;;;;;45.65;30.60;;;13.00;99.90;;;;;;5008853;28;20425;-71
2022/11/01 04:06:45;;;;;;;48.22;32.25;;;12.90;99.90;;;;;;5010262;28;20053;-71
2022/11/01 04:09:11;;;;;;;45.03;30.27;;;12.90;99.90;;;;;;5010417;28;20045;-71
2022/11/01 04:11:37;;;;;;;47.08;31.98;;;13.00;99.90;;;;;;4994460;28;20656;-70
2022/11/01 04:22:14;;;;;;;46.80;32.13;;;13.10;99.90;;;;;;5022064;28;20046;-71
2022/11/01 04:24:40;;;;;;;44.22;31.25;;;13.10;99.90;;;;;;5010137;28;20042;-71
2022/11/01 04:27:06;;;;;;;41.58;29.52;;;13.10;99.90;;;;;;4990015;28;20097;-71
2022/11/01 04:29:31;;;;;;;45.85;34.42;;;13.20;99.90;;;;;;5019729;28;20054;-71
2022/11/01 04:31:57;;;;;;;48.35;34.30;;;13.10;99.90;;;;;;4993705;28;20109;-71
2022/11/01 04:34:41;;;;;;;48.17;33.88;;;13.00;99.90;;;;;;5005704;28;20529;-71
2022/11/01 04:37:08;;;;;;;48.25;33.17;;;13.00;99.90;;;;;;5009947;28;20590;-71
2022/11/01 04:39:34;;;;;;;42.65;30.63;;;13.10;99.90;;;;;;5006243;28;20054;-71
2022/11/01 04:41:59;;;;;;;41.88;32.15;;;13.10;99.90;;;;;;5024870;28;20042;-71
2022/11/01 04:44:28;;;;;;;44.28;31.25;;;13.10;99.90;;;;;;4991182;28;20455;-71
2022/11/01 04:46:54;;;;;;;55.10;37.05;;;13.10;99.90;;;;;;5024261;28;20104;-71
2022/11/01 04:49:20;;;;;;;44.70;32.65;;;13.00;99.90;;;;;;5008337;28;20490;-70
2022/11/01 04:51:45;;;;;;;44.17;31.95;;;13.10;99.90;;;;;;5005841;28;20050;-71
2022/11/01 04:54:11;;;;;;;45.15;32.28;;;13.20;99.90;;;;;;5007092;28;20049;-71
2022/11/01 04:56:37;;;;;;;43.75;30.98;;;13.20;99.90;;;;;;4992932;28;20137;-70
2022/11/01 04:59:02;;;;;;;43.20;29.35;;;13.20;99.90;;;;;;5008716;28;20115;-71
2022/11/01 05:01:28;;;;;;;42.58;28.77;;;13.30;99.90;;;;;;4992881;28;20050;-71
2022/11/01 05:03:54;;;;;;;48.90;34.25;;;13.30;99.90;;;;;;4991817;28;20049;-71
2022/11/01 05:06:20;;;;;;;44.80;31.77;;;13.20;99.90;;;;;;4991254;28;20069;-71
2022/11/01 05:08:46;;;;;;;43.72;30.60;;;13.20;99.90;;;;;;5007121;28;20045;-71
2022/11/01 05:11:11;;;;;;;45.00;31.55;;;13.20;99.90;;;;;;5007937;28;20417;-71
2022/11/01 05:13:37;;;;;;;45.67;30.73;;;13.20;99.90;;;;;;5007529;28;20388;-72
2022/11/01 05:16:03;;;;;;;40.90;29.15;;;13.30;99.90;;;;;;5017102;28;20132;-71
2022/11/01 05:18:29;;;;;;;45.22;31.80;;;13.30;99.90;;;;;;5009524;28;20152;-72
2022/11/01 05:20:57;;;;;;;44.78;31.45;;;13.30;99.90;;;;;;4991038;28;20124;-72
2022/11/01 05:23:23;;;;;;;51.17;34.72;;;13.20;99.90;;;;;;4989798;28;20050;-70
2022/11/01 05:25:49;;;;;;;45.65;33.80;;;13.20;99.90;;;;;;5008693;28;20053;-71
2022/11/01 05:28:14;;;;;;;44.13;32.42;;;13.00;99.90;;;;;;5002801;28;20069;-70
2022/11/01 05:30:40;;;;;;;49.88;33.45;;;13.10;99.90;;;;;;5008722;28;20125;-71
2022/11/01 05:33:06;;;;;;;48.63;33.03;;;13.10;99.90;;;;;;5008647;28;20056;-71
2022/11/01 05:35:32;;;;;;;48.08;34.03;;;13.00;99.90;;;;;;5007448;28;20436;-71
2022/11/01 05:37:58;;;;;;;45.20;31.45;;;13.00;99.90;;;;;;5004975;28;20076;-71
2022/11/01 05:40:26;;;;;;;46.25;32.45;;;13.00;99.90;;;;;;5007815;28;20423;-70
2022/11/01 05:42:51;;;;;;;43.80;31.25;;;12.90;99.90;;;;;;4987002;28;20074;-71
2022/11/01 05:45:17;;;;;;;40.42;31.75;;;13.00;99.90;;;;;;5040216;28;20081;-71
2022/11/01 05:47:43;;;;;;;47.35;34.67;;;13.00;99.90;;;;;;4990652;28;20095;-71
2022/11/01 05:50:13;;;;;;;44.97;32.50;;;13.00;99.90;;;;;;5008495;28;20472;-71
2022/11/01 05:52:38;;;;;;;43.08;32.33;;;13.00;99.90;;;;;;5007742;28;20472;-71
2022/11/01 05:55:05;;;;;;;42.17;30.23;;;13.00;99.90;;;;;;4992719;28;20062;-71
2022/11/01 05:57:30;;;;;;;40.47;30.70;;;13.00;99.90;;;;;;5008035;28;20057;-71
2022/11/01 05:59:56;;;;;;;37.80;29.98;;;13.00;99.90;;;;;;5002082;28;20770;-70
2022/11/01 06:02:22;;;;;;;39.05;30.05;;;13.00;99.90;;;;;;5008210;28;20068;-71
2022/11/01 06:04:48;;;;;;;40.67;30.25;;;13.00;99.90;;;;;;4991468;28;20061;-70
2022/11/01 06:07:14;;;;;;;43.80;30.58;;;13.00;99.90;;;;;;5010948;28;20725;-74
2022/11/01 06:09:40;;;;;;;39.80;30.40;;;13.00;99.90;;;;;;5028120;28;20120;-76
2022/11/01 06:12:05;;;;;;;44.15;31.48;;;13.00;99.90;;;;;;4994058;28;20049;-74
2022/11/01 06:14:31;;;;;;;45.00;33.03;;;12.80;99.90;;;;;;5016453;28;20050;-73
2022/11/01 06:16:59;;;;;;;41.55;30.63;;;12.90;99.90;;;;;;5013076;28;20399;-74
2022/11/01 06:19:25;;;;;;;40.85;30.02;;;12.90;99.90;;;;;;5013348;28;20045;-74
2022/11/01 06:21:51;;;;;;;37.25;28.33;;;12.90;99.90;;;;;;5018653;28;20436;-74
2022/11/01 06:24:16;;;;;;;36.67;27.95;;;12.90;99.90;;;;;;4990973;28;20526;-74
2022/11/01 06:26:42;;;;;;;36.25;28.35;;;12.90;99.90;;;;;;5003032;28;20051;-74
2022/11/01 06:29:08;;;;;;;41.60;31.83;;;12.90;99.90;;;;;;5008819;28;20081;-74
2022/11/01 06:31:34;;;;;;;37.55;27.85;;;13.00;99.90;;;;;;5009776;28;20042;-74
2022/11/01 06:33:59;;;;;;;39.25;28.75;;;13.10;99.90;;;;;;4989477;28;20157;-75
2022/11/01 06:36:26;;;;;;;36.00;27.15;;;13.10;99.90;;;;;;5001954;28;20058;-74
2022/11/01 06:38:51;;;;;;;35.35;26.17;;;13.10;99.90;;;;;;5017843;28;20054;-74
2022/11/01 06:41:18;;;;;;;35.92;29.23;;;13.10;99.90;;;;;;5029263;28;20042;-76
2022/11/01 06:43:44;;;;;;;36.97;27.92;;;13.20;99.90;;;;;;5010253;28;20108;-75
2022/11/01 06:46:10;;;;;;;34.30;26.50;;;13.20;99.90;;;;;;5028399;28;20059;-74
2022/11/01 06:48:35;;;;;;;37.53;26.35;;;13.20;99.90;;;;;;5013165;28;20112;-76
2022/11/01 06:51:02;;;;;;;32.40;25.33;;;13.20;99.90;;;;;;4995978;28;20456;-78
2022/11/01 06:53:28;;;;;;;34.67;25.58;;;13.30;99.90;;;;;;5010184;28;20053;-76
2022/11/01 06:55:53;;;;;;;33.15;24.73;;;13.40;99.90;;;;;;5039057;28;20478;-79
2022/11/01 06:58:19;;;;;;;31.38;24.45;;;13.40;99.90;;;;;;5010423;28;20064;-75
2022/11/01 07:00:45;;;;;;;32.67;25.35;;;13.50;99.90;;;;;;4991855;28;20050;-77
2022/11/01 07:03:12;;;;;;;31.85;23.83;;;13.50;99.90;;;;;;5010240;28;20049;-74
2022/11/01 07:05:39;;;;;;;29.25;22.95;;;13.50;99.90;;;;;;5013601;28;20470;-75
2022/11/01 07:08:10;;;;;;;28.45;21.50;;;13.50;99.90;;;;;;5025214;28;20046;-77
2022/11/01 07:10:37;;;;;;;29.25;22.42;;;13.60;99.90;;;;;;4984664;28;20053;-74
2022/11/01 07:13:03;;;;;;;31.40;22.17;;;13.70;99.90;;;;;;4994374;28;20050;-77
2022/11/01 07:15:29;;;;;;;31.13;21.67;;;13.60;99.90;;;;;;5013210;28;20046;-76
2022/11/01 07:17:59;;;;;;;30.65;20.80;;;13.70;99.90;;;;;;5008304;28;20054;-75
2022/11/01 07:20:26;;;;;;;29.98;21.17;;;13.70;99.90;;;;;;4993621;28;20042;-75
2022/11/01 07:22:59;;;;;;;27.85;20.98;;;13.80;99.90;;;;;;5008014;28;20046;-74
2022/11/01 07:25:25;;;;;;;21.45;13.73;;;13.80;99.90;;;;;;5008314;28;20486;-74
2022/11/01 07:27:50;;;;;;;24.95;16.45;;;13.80;99.90;;;;;;5034910;28;20057;-74
2022/11/01 07:30:16;;;;;;;23.95;18.80;;;13.90;99.90;;;;;;5027663;28;20060;-74
2022/11/01 07:32:42;;;;;;;23.10;17.52;;;13.90;99.90;;;;;;5015557;28;20086;-73
2022/11/01 07:35:08;;;;;;;24.77;17.13;;;13.80;99.90;;;;;;4993606;28;20547;-74
2022/11/01 07:37:37;;;;;;;20.77;14.90;;;13.90;99.90;;;;;;5009475;28;20042;-74
2022/11/01 07:40:11;;;;;;;21.63;13.95;;;13.90;99.90;;;;;;4993667;28;20046;-75
2022/11/01 07:42:44;;;;;;;18.13;12.35;;;14.00;99.90;;;;;;4989902;28;20053;-74
2022/11/01 07:45:10;;;;;;;22.33;12.25;;;14.00;99.90;;;;;;5009948;28;20464;-73
2022/11/01 07:47:36;;;;;;;19.02;11.50;;;14.10;99.90;;;;;;5009675;28;20150;-72
2022/11/01 07:50:02;;;;;;;17.48;11.85;;;14.20;99.90;;;;;;5008658;28;20096;-74
2022/11/01 07:52:28;;;;;;;19.35;11.27;;;14.20;99.90;;;;;;4993407;28;20054;-73
2022/11/01 07:54:54;;;;;;;19.50;11.88;;;14.30;99.90;;;;;;5009695;28;20053;-76
2022/11/01 07:57:20;;;;;;;19.63;11.07;;;14.30;99.90;;;;;;4991947;28;20053;-74
2022/11/01 07:59:48;;;;;;;18.73;11.52;;;14.30;99.90;;;;;;5009720;28;20069;-73
2022/11/01 08:02:14;;;;;;;21.20;11.65;;;14.40;99.90;;;;;;5009574;28;20152;-74
2022/11/01 08:04:40;;;;;;;19.73;10.32;;;14.50;99.90;;;;;;4992986;28;20073;-74
2022/11/01 08:07:05;;;;;;;18.90;9.57;;;14.50;99.90;;;;;;5003903;28;20088;-74
2022/11/01 08:09:31;;;;;;;16.05;9.27;;;14.60;99.90;;;;;;5009871;28;20050;-73
2022/11/01 08:12:00;;;;;;;18.00;8.38;;;14.70;99.90;;;;;;4977147;28;20054;-74
2022/11/01 08:14:26;;;;;;;20.23;8.27;;;14.80;99.90;;;;;;5006310;28;20137;-74
2022/11/01 08:16:54;;;;;;;20.63;8.68;;;15.00;99.90;;;;;;5009582;28;20641;-73
2022/11/01 08:19:25;;;;;;;22.73;7.85;;;15.30;99.90;;;;;;4993394;28;20061;-73
2022/11/01 08:21:50;;;;;;;20.05;7.53;;;15.30;99.90;;;;;;4994701;28;20046;-74
2022/11/01 08:24:16;;;;;;;21.77;7.88;;;15.60;99.90;;;;;;5003792;28;20111;-73
2022/11/01 08:26:42;;;;;;;14.93;7.18;;;15.50;99.90;;;;;;4993106;28;20054;-74
2022/11/01 08:29:17;;;;;;;14.02;6.90;;;15.60;99.90;;;;;;4995271;28;20038;-74
2022/11/01 08:31:44;;;;;;;18.13;7.35;;;15.80;99.90;;;;;;5007828;28;20111;-73
2022/11/01 08:34:12;;;;;;;20.90;6.70;;;15.70;99.90;;;;;;4992929;28;20108;-73
2022/11/01 08:36:41;;;;;;;16.13;6.22;;;15.80;99.90;;;;;;5007183;28;20376;-73
2022/11/01 08:39:07;;;;;;;21.17;6.07;;;15.90;99.90;;;;;;4976205;28;20074;-75
2022/11/01 08:41:42;;;;;;;12.90;6.10;;;15.90;99.90;;;;;;5007746;28;20520;-76
2022/11/01 08:44:17;;;;;;;17.15;6.30;;;15.90;99.90;;;;;;4990085;28;20046;-73
2022/11/01 08:46:43;;;;;;;16.23;5.40;;;15.90;99.90;;;;;;5005144;28;20045;-74
2022/11/01 08:49:10;;;;;;;11.60;6.00;;;16.00;99.90;;;;;;5008295;28;20387;-74
2022/11/01 08:51:36;;;;;;;15.50;5.97;;;16.00;99.90;;;;;;4991399;28;20057;-73
2022/11/01 08:54:02;;;;;;;14.90;6.35;;;16.00;99.90;;;;;;5008498;28;20049;-74
2022/11/01 08:56:28;;;;;;;12.35;5.85;;;16.10;99.90;;;;;;4988102;28;20077;-73
2022/11/01 08:58:59;;;;;;;14.32;6.00;;;16.20;99.90;;;;;;5008653;28;20054;-74
2022/11/01 09:01:28;;;;;;;10.65;6.22;;;16.20;99.90;;;;;;4991960;28;20466;-73
2022/11/01 09:03:57;;;;;;;14.23;5.63;;;16.20;99.90;;;;;;5001851;28;20045;-73
2022/11/01 09:06:23;;;;;;;14.15;5.10;;;16.20;99.90;;;;;;4992229;28;20115;-74
2022/11/01 09:08:52;;;;;;;10.43;5.15;;;16.30;99.90;;;;;;4992063;28;20147;-73
2022/11/01 09:11:21;;;;;;;11.07;5.03;;;16.20;99.90;;;;;;5007630;28;20081;-74
2022/11/01 09:13:48;;;;;;;14.10;5.82;;;16.30;99.90;;;;;;4992549;28;20671;-74
2022/11/01 09:16:14;;;;;;;14.65;6.78;;;16.30;99.90;;;;;;4975943;28;20606;-71
2022/11/01 09:18:41;;;;;;;16.65;5.78;;;16.30;99.90;;;;;;5015132;28;20057;-71
2022/11/01 09:21:07;;;;;;;14.43;5.63;;;16.40;99.90;;;;;;5007473;28;20132;-74
2022/11/01 09:23:34;;;;;;;15.40;6.00;;;16.40;99.90;;;;;;5007696;28;20124;-74
2022/11/01 09:26:04;;;;;;;11.73;5.63;;;16.40;99.90;;;;;;4992890;28;20077;-73
2022/11/01 09:28:30;;;;;;;19.33;6.65;;;16.50;99.90;;;;;;4988018;28;20831;-73
2022/11/01 09:31:06;;;;;;;11.52;5.75;;;16.40;99.90;;;;;;5007811;28;20049;-75
2022/11/01 09:33:32;;;;;;;15.80;5.40;;;16.50;99.90;;;;;;4992467;28;20072;-73
2022/11/01 09:35:58;;;;;;;14.40;5.63;;;16.50;99.90;;;;;;5012615;28;20070;-73
2022/11/01 09:38:24;;;;;;;12.32;5.50;;;16.50;99.90;;;;;;5007549;28;20054;-74
2022/11/01 09:41:18;;;;;;;13.63;5.95;;;16.50;99.90;;;;;;4990381;28;20062;-74
2022/11/01 09:43:44;;;;;;;13.15;4.82;;;16.50;99.90;;;;;;5007951;28;20041;-73
2022/11/01 09:46:15;;;;;;;11.15;4.90;;;16.60;99.90;;;;;;5004949;28;20530;-75
2022/11/01 09:48:41;;;;;;;11.52;5.13;;;16.60;99.90;;;;;;5020722;28;20518;-73
2022/11/01 09:51:22;;;;;;;12.27;4.57;;;16.60;99.90;;;;;;4998984;28;20050;-73
2022/11/01 09:53:49;;;;;;;14.05;5.47;;;16.60;99.90;;;;;;5002988;28;20097;-73
2022/11/01 09:57:06;;;;;;;11.18;4.30;;;16.60;99.90;;;;;;5006780;28;20046;-72
2022/11/01 09:59:44;;;;;;;12.90;4.53;;;16.70;99.90;;;;;;4988301;28;20068;-73
2022/11/01 10:02:40;;;;;;;11.52;4.60;;;16.70;99.90;;;;;;4972192;28;20400;-74
2022/11/01 10:05:15;;;;;;;11.32;4.47;;;17.00;99.90;;;;;;5007381;28;20498;-74
2022/11/01 10:08:00;;;;;;;13.80;5.20;;;17.20;99.90;;;;;;4994307;28;20165;-73
2022/11/01 10:10:26;;;;;;;9.80;4.47;;;17.40;99.90;;;;;;5007679;28;20056;-75
2022/11/01 10:13:02;;;;;;;11.48;4.85;;;17.60;99.90;;;;;;5022655;28;20046;-74
2022/11/01 10:15:52;;;;;;;10.82;4.53;;;17.60;99.90;;;;;;5007361;28;20057;-73
2022/11/01 10:18:28;;;;;;;9.60;4.55;;;17.70;99.90;;;;;;5007580;28;20054;-72
2022/11/01 10:21:02;;;;;;;9.45;4.07;;;17.70;99.90;;;;;;5006122;28;20037;-74
2022/11/01 10:23:51;;;;;;;12.30;4.15;;;17.60;99.90;;;;;;4990656;28;20115;-73
2022/11/01 10:26:26;;;;;;;6.68;3.95;;;17.60;99.90;;;;;;5006128;28;20112;-74
2022/11/01 10:29:00;;;;;;;14.32;4.30;;;17.50;99.90;;;;;;5007275;28;20081;-73
2022/11/01 10:31:26;;;;;;;12.70;4.25;;;17.40;99.90;;;;;;5001200;28;20045;-74
2022/11/01 10:34:12;;;;;;;8.18;3.80;;;17.40;99.90;;;;;;4989718;28;20383;-72
2022/11/01 10:36:42;;;;;;;11.80;4.55;;;17.30;99.90;;;;;;5007033;28;20065;-72
2022/11/01 10:39:30;;;;;;;7.65;3.85;;;17.30;99.90;;;;;;4973336;28;20471;-73
2022/11/01 10:41:56;;;;;;;;;;;17.20;99.90;;;;;;5007726;28;20343;-73
2022/11/01 10:44:25;;;;;;;9.50;4.03;;;17.20;99.90;;;;;;5008312;28;20389;-72
2022/11/01 10:46:51;;;;;;;11.38;4.65;;;17.20;99.90;;;;;;5002162;28;20364;-74
2022/11/01 10:49:35;;;;;;;13.00;4.20;;;17.20;99.90;;;;;;5006300;28;20111;-74
2022/11/01 10:52:08;;;;;;;9.25;3.78;;;17.20;99.90;;;;;;5006819;28;20045;-74
2022/11/01 10:54:36;;;;;;;11.63;3.90;;;17.20;99.90;;;;;;5005100;28;20049;-72
2022/11/01 10:57:05;;;;;;;11.20;4.13;;;17.20;99.90;;;;;;5006874;28;20169;-73
2022/11/01 10:59:41;;;;;;;12.82;4.63;;;17.20;99.90;;;;;;4989487;28;20348;-74
2022/11/01 11:02:32;;;;;;;11.73;4.30;;;17.20;99.90;;;;;;5007416;28;20375;-74
2022/11/01 11:04:58;;;;;;;8.75;3.92;;;17.20;99.90;;;;;;5001808;28;20042;-73
2022/11/01 11:07:24;;;;;;;9.98;4.40;;;17.20;99.90;;;;;;4990157;28;20046;-72
2022/11/01 11:09:50;;;;;;;11.73;4.40;;;17.40;99.90;;;;;;5005253;28;20185;-73
2022/11/01 11:12:19;;;;;;;10.65;3.92;;;17.90;99.90;;;;;;4973988;28;20137;-73
2022/11/01 11:14:49;;;;;;;6.80;3.33;;;18.20;99.90;;;;;;5006215;28;20474;-73
2022/11/01 11:17:44;;;;;;;8.82;3.60;;;18.50;99.90;;;;;;4989873;28;20080;-75
2022/11/01 11:20:10;;;;;;;8.20;3.40;;;18.80;99.90;;;;;;4993438;28;20053;-73
2022/11/01 11:22:40;;;;;;;9.73;3.65;;;18.70;99.90;;;;;;5005081;28;20045;-73
2022/11/01 11:25:13;;;;;;;11.43;3.83;;;18.90;99.90;;;;;;4977337;28;20104;-73
2022/11/01 11:27:42;;;;;;;9.00;3.65;;;19.10;99.90;;;;;;5014799;28;20041;-72
2022/11/01 11:30:12;;;;;;;7.93;3.05;;;19.00;99.90;;;;;;5010029;28;20046;-73
2022/11/01 11:32:39;;;;;;;5.20;3.15;;;18.80;99.90;;;;;;5010132;28;20042;-74
2022/11/01 11:35:07;;;;;;;6.82;3.17;;;19.00;99.90;;;;;;5008304;28;20510;-75
2022/11/01 11:37:34;;;;;;;8.55;3.58;;;19.10;99.10;;;;;;5012797;28;20049;-73
2022/11/01 11:40:23;;;;;;;11.30;3.10;;;19.10;99.00;;;;;;5007658;28;20057;-74
2022/11/01 11:42:50;;;;;;;10.25;3.30;;;18.60;99.50;;;;;;5041948;28;20136;-72
2022/11/01 11:45:26;;;;;;;7.78;3.28;;;18.50;99.90;;;;;;5010240;28;20057;-75
2022/11/01 11:47:52;;;;;;;8.73;3.20;;;18.20;99.90;;;;;;4994444;28;20057;-76
2022/11/01 11:50:22;;;;;;;10.00;3.60;;;18.30;99.90;;;;;;5008817;28;20072;-73
2022/11/01 11:53:02;;;;;;;7.35;3.50;;;18.10;99.90;;;;;;5011104;28;20542;-75
2022/11/01 11:56:07;;;;;;;8.05;3.20;;;17.90;99.90;;;;;;4993580;28;20050;-74
2022/11/01 11:58:45;;;;;;;8.25;3.28;;;17.80;99.90;;;;;;4972119;28;20082;-75
2022/11/01 12:01:14;;;;;;;7.13;3.25;;;17.60;99.90;;;;;;4953303;28;20047;-72
2022/11/01 12:03:51;;;;;;;8.40;3.33;;;17.50;99.90;;;;;;4985976;28;20046;-74
2022/11/01 12:06:42;;;;;;;9.57;3.53;;;17.50;99.90;;;;;;5013179;28;20095;-75
2022/11/01 12:09:36;;;;;;;8.30;2.95;;;17.40;99.90;;;;;;5002353;28;20109;-73
2022/11/01 12:12:15;;;;;;;5.55;3.05;;;17.50;99.90;;;;;;5003443;28;20468;-74
2022/11/01 12:14:41;;;;;;;7.80;2.92;;;17.60;99.90;;;;;;5023879;28;20103;-75
2022/11/01 12:17:43;;;;;;;6.93;3.10;;;18.60;98.20;;;;;;5022220;28;20042;-74
2022/11/01 12:20:19;;;;;;;9.45;2.63;;;18.90;96.70;;;;;;4987676;28;20082;-72
2022/11/01 12:22:48;;;;;;;7.60;2.30;;;19.70;95.80;;;;;;4991712;28;20444;-74
2022/11/01 12:25:21;;;;;;;5.72;2.03;;;20.00;91.90;;;;;;4991961;28;20084;-73
2022/11/01 12:28:12;;;;;;;7.07;2.35;;;20.20;90.60;;;;;;5008474;28;20056;-74
2022/11/01 12:30:38;;;;;;;6.90;2.47;;;20.80;90.50;;;;;;4994157;28;20055;-74
2022/11/01 12:33:53;;;;;;;4.03;2.10;;;20.50;90.90;;;;;;5008263;28;20049;-75
2022/11/01 12:36:43;;;;;;;4.75;2.30;;;20.90;90.60;;;;;;4995154;28;20539;-74
2022/11/01 12:39:30;;;;;;;5.63;2.20;;;22.10;90.10;;;;;;4998613;28;20054;-73
2022/11/01 12:41:58;;;;;;;5.82;2.20;;;21.70;88.50;;;;;;5006061;28;20042;-73
2022/11/01 12:44:37;;;;;;;6.78;2.15;;;20.90;90.00;;;;;;5023428;28;20042;-76
2022/11/01 12:47:23;;;;;;;6.43;2.28;;;21.20;90.90;;;;;;5007706;28;20430;-72
2022/11/01 12:50:08;;;;;;;5.80;2.00;;;21.40;87.60;;;;;;4992076;28;20037;-75
2022/11/01 12:53:18;;;;;;;6.45;1.90;;;21.20;87.50;;;;;;4990166;28;20072;-74
2022/11/01 12:55:45;;;;;;;4.45;1.80;;;21.10;88.00;;;;;;5003629;28;20041;-72
2022/11/01 12:58:17;;;;;;;4.53;2.15;;;20.80;87.40;;;;;;5007083;28;20488;-73